createdAt,value
2018-10-19T00:00:33.430Z,40.88
2018-10-19T00:03:01.162Z,40.70
2018-10-19T00:05:28.854Z,41.67
2018-10-19T00:07:56.530Z,41.95
2018-10-19T00:10:24.113Z,41.30
2018-10-19T00:12:51.949Z,40.10
2018-10-19T00:15:19.731Z,42.33
2018-10-19T00:17:47.349Z,42.60
2018-10-19T00:20:14.977Z,41.13
2018-10-19T00:22:42.505Z,42.62
2018-10-19T00:25:10.096Z,41.58
2018-10-19T00:27:37.635Z,42.25
2018-10-19T00:30:05.985Z,44.15
2018-10-19T00:32:33.589Z,41.98
2018-10-19T00:35:01.184Z,42.65
2018-10-19T00:37:28.687Z,41.35
2018-10-19T00:39:56.218Z,41.73
2018-10-19T00:42:23.863Z,39.92
2018-10-19T00:44:51.437Z,43.28
2018-10-19T00:47:19.047Z,40.50
2018-10-19T00:49:46.606Z,40.67
2018-10-19T00:52:14.247Z,43.48
2018-10-19T00:54:41.829Z,42.20
2018-10-19T00:57:09.491Z,43.65
2018-10-19T00:59:37.087Z,42.23
2018-10-19T01:02:04.680Z,40.67
2018-10-19T01:04:32.190Z,43.50
2018-10-19T01:06:59.793Z,41.13
2018-10-19T01:09:27.308Z,42.25
2018-10-19T01:11:54.843Z,41.13
2018-10-19T01:14:22.409Z,41.65
2018-10-19T01:16:50.017Z,44.00
2018-10-19T01:19:17.536Z,44.90
2018-10-19T01:21:45.105Z,44.75
2018-10-19T01:24:12.624Z,42.13
2018-10-19T01:26:40.203Z,42.45
2018-10-19T01:29:07.780Z,43.92
2018-10-19T01:31:35.299Z,43.65
2018-10-19T01:34:02.805Z,42.93
2018-10-19T01:36:35.956Z,41.23
2018-10-19T01:39:04.804Z,41.02
2018-10-19T01:41:32.252Z,43.75
2018-10-19T01:43:59.788Z,45.28
2018-10-19T01:46:27.328Z,43.45
2018-10-19T01:48:54.822Z,44.15
2018-10-19T01:51:22.357Z,41.40
2018-10-19T01:53:49.855Z,43.50
2018-10-19T01:56:17.429Z,43.05
2018-10-19T01:58:45.025Z,46.08
2018-10-19T02:01:12.506Z,42.40
2018-10-19T02:03:40.007Z,45.28
2018-10-19T02:06:07.533Z,47.25
2018-10-19T02:08:35.069Z,48.48
2018-10-19T02:11:02.624Z,49.50
2018-10-19T02:13:30.166Z,49.35
2018-10-19T02:15:57.707Z,47.60
2018-10-19T02:18:25.223Z,48.08
2018-10-19T02:20:52.773Z,44.10
2018-10-19T02:23:20.283Z,46.75
2018-10-19T02:25:47.806Z,46.53
2018-10-19T02:28:15.331Z,46.75
2018-10-19T02:30:42.858Z,46.68
2018-10-19T02:33:10.446Z,45.55
2018-10-19T02:35:37.925Z,47.17
2018-10-19T02:38:05.665Z,49.48
2018-10-19T02:40:33.227Z,49.93
2018-10-19T02:43:00.857Z,47.40
2018-10-19T02:45:33.035Z,47.33
2018-10-19T02:48:00.844Z,49.00
2018-10-19T02:50:28.431Z,47.60
2018-10-19T02:52:55.981Z,48.23
2018-10-19T02:55:23.500Z,50.38
2018-10-19T02:57:51.018Z,48.13
2018-10-19T03:00:18.543Z,48.10
2018-10-19T03:02:46.090Z,48.83
2018-10-19T03:05:13.668Z,49.65
2018-10-19T03:07:41.199Z,50.98
2018-10-19T03:10:09.154Z,49.90
2018-10-19T03:12:36.685Z,52.25
2018-10-19T03:15:05.753Z,52.43
2018-10-19T03:17:33.266Z,50.12
2018-10-19T03:20:00.802Z,54.23
2018-10-19T03:22:28.321Z,49.80
2018-10-19T03:24:55.812Z,48.78
2018-10-19T03:27:23.372Z,51.45
2018-10-19T03:29:50.900Z,52.27
2018-10-19T03:32:18.392Z,51.02
2018-10-19T03:34:45.935Z,50.95
2018-10-19T03:37:13.501Z,53.90
2018-10-19T03:39:41.047Z,52.43
2018-10-19T03:42:08.567Z,50.63
2018-10-19T03:44:36.066Z,50.98
2018-10-19T03:47:04.149Z,51.98
2018-10-19T03:49:31.749Z,53.30
2018-10-19T03:51:59.322Z,51.58
2018-10-19T03:54:26.815Z,50.45
2018-10-19T03:56:54.381Z,46.63
2018-10-19T03:59:21.972Z,49.73
2018-10-19T04:01:49.531Z,52.85
2018-10-19T04:04:17.062Z,51.37
2018-10-19T04:06:44.656Z,52.05
2018-10-19T04:09:13.173Z,49.13
2018-10-19T04:11:40.860Z,49.65
2018-10-19T04:14:09.843Z,49.27
2018-10-19T04:16:37.405Z,49.42
2018-10-19T04:19:05.170Z,46.68
2018-10-19T04:21:33.184Z,48.87
2018-10-19T04:24:01.003Z,49.13
2018-10-19T04:26:28.574Z,47.98
2018-10-19T04:28:56.219Z,48.02
2018-10-19T04:31:23.696Z,47.55
2018-10-19T04:33:51.242Z,46.48
2018-10-19T04:36:19.370Z,49.95
2018-10-19T04:38:46.924Z,48.08
2018-10-19T04:41:14.655Z,46.15
2018-10-19T04:43:42.110Z,46.68
2018-10-19T04:46:09.705Z,48.35
2018-10-19T04:48:37.458Z,46.85
2018-10-19T04:51:05.260Z,47.30
2018-10-19T04:53:32.811Z,48.28
2018-10-19T04:56:00.375Z,45.83
2018-10-19T04:58:28.161Z,47.80
2018-10-19T05:00:55.824Z,47.60
2018-10-19T05:03:23.530Z,45.70
2018-10-19T05:05:51.225Z,47.40
2018-10-19T05:08:18.806Z,46.15
2018-10-19T05:10:46.351Z,44.63
2018-10-19T05:13:13.891Z,45.50
2018-10-19T05:15:41.427Z,43.68
2018-10-19T05:18:09.044Z,42.58
2018-10-19T05:20:36.692Z,44.75
2018-10-19T05:23:04.747Z,42.33
2018-10-19T05:25:32.250Z,41.45
2018-10-19T05:27:59.819Z,41.18
2018-10-19T05:30:27.306Z,42.03
2018-10-19T05:32:54.856Z,39.92
2018-10-19T05:35:22.477Z,41.45
2018-10-19T05:37:49.984Z,47.20
2018-10-19T05:40:17.523Z,46.50
2018-10-19T05:42:45.100Z,47.17
2018-10-19T05:45:13.092Z,43.92
2018-10-19T05:47:40.845Z,44.65
2018-10-19T05:50:09.886Z,44.38
2018-10-19T05:52:38.045Z,45.35
2018-10-19T05:55:05.613Z,44.93
2018-10-19T05:57:33.263Z,46.92
2018-10-19T06:00:00.827Z,44.88
2018-10-19T06:02:28.503Z,43.33
2018-10-19T06:04:56.064Z,39.08
2018-10-19T06:07:23.658Z,42.70
2018-10-19T06:09:51.221Z,40.67
2018-10-19T06:12:18.911Z,39.98
2018-10-19T06:14:46.457Z,39.55
2018-10-19T06:17:14.110Z,40.52
2018-10-19T06:19:41.704Z,47.95
2018-10-19T06:22:09.452Z,46.00
2018-10-19T06:24:37.026Z,39.78
2018-10-19T06:27:04.903Z,42.13
2018-10-19T06:29:32.458Z,44.40
2018-10-19T06:32:00.252Z,44.33
2018-10-19T06:34:27.947Z,43.45
2018-10-19T06:36:55.696Z,46.25
2018-10-19T06:39:23.364Z,42.30
2018-10-19T06:41:50.936Z,44.50
2018-10-19T06:44:18.561Z,45.20
2018-10-19T06:46:46.240Z,46.00
2018-10-19T06:49:13.871Z,42.65
2018-10-19T06:51:41.484Z,46.75
2018-10-19T06:54:09.109Z,49.65
2018-10-19T06:56:36.705Z,48.10
2018-10-19T06:59:04.462Z,47.80
2018-10-19T07:01:32.010Z,53.35
2018-10-19T07:03:59.560Z,51.20
2018-10-19T07:06:27.262Z,50.92
2018-10-19T07:08:54.840Z,49.15
2018-10-19T07:11:22.399Z,50.20
2018-10-19T07:13:49.968Z,49.75
2018-10-19T07:16:17.550Z,50.98
2018-10-19T07:18:45.077Z,51.35
2018-10-19T07:21:12.681Z,52.15
2018-10-19T07:23:40.236Z,52.90
2018-10-19T07:26:07.869Z,54.18
2018-10-19T07:28:35.431Z,52.85
2018-10-19T07:31:02.988Z,55.55
2018-10-19T07:33:30.575Z,57.17
2018-10-19T07:35:58.221Z,58.33
2018-10-19T07:38:25.881Z,62.20
2018-10-19T07:40:53.915Z,64.37
2018-10-19T07:43:21.513Z,64.90
2018-10-19T07:45:49.395Z,65.15
2018-10-19T07:48:17.001Z,64.22
2018-10-19T07:50:44.530Z,63.23
2018-10-19T07:53:12.160Z,66.67
2018-10-19T07:55:39.668Z,66.17
2018-10-19T07:58:07.266Z,69.90
2018-10-19T08:00:35.024Z,66.07
2018-10-19T08:03:02.543Z,67.27
2018-10-19T08:05:30.249Z,67.75
2018-10-19T08:07:57.952Z,64.50
2018-10-19T08:10:25.657Z,64.17
2018-10-19T08:12:53.348Z,67.47
2018-10-19T08:15:21.787Z,68.00
2018-10-19T08:17:49.473Z,69.53
2018-10-19T08:20:17.121Z,70.00
2018-10-19T08:22:44.713Z,67.87
2018-10-19T08:25:12.296Z,69.90
2018-10-19T08:27:39.895Z,71.63
2018-10-19T08:30:07.532Z,70.20
2018-10-19T08:32:35.235Z,68.73
2018-10-19T08:35:02.966Z,70.50
2018-10-19T08:37:30.792Z,72.03
2018-10-19T08:39:58.396Z,70.90
2018-10-19T08:42:25.941Z,76.57
2018-10-19T08:44:53.592Z,73.10
2018-10-19T08:47:21.305Z,72.47
2018-10-19T08:49:48.940Z,73.27
2018-10-19T08:52:16.532Z,73.10
2018-10-19T08:54:44.290Z,69.93
2018-10-19T08:57:11.904Z,74.53
2018-10-19T08:59:39.500Z,72.50
2018-10-19T09:02:07.129Z,76.07
2018-10-19T09:04:34.701Z,72.63
2018-10-19T09:07:02.289Z,73.80
2018-10-19T09:09:29.876Z,72.50
2018-10-19T09:11:57.432Z,73.40
2018-10-19T09:14:45.073Z,76.13
2018-10-19T09:17:12.773Z,76.00
2018-10-19T09:19:40.539Z,71.70
2018-10-19T09:22:08.274Z,74.20
2018-10-19T09:24:35.915Z,73.70
2018-10-19T09:27:03.531Z,73.80
2018-10-19T09:29:31.207Z,74.00
2018-10-19T09:31:58.757Z,71.77
2018-10-19T09:34:26.351Z,71.70
2018-10-19T09:36:54.418Z,71.20
2018-10-19T09:39:22.391Z,73.83
2018-10-19T09:41:50.086Z,70.87
2018-10-19T09:44:18.062Z,73.70
2018-10-19T09:46:45.682Z,70.37
2018-10-19T09:49:13.772Z,69.90
2018-10-19T09:51:41.881Z,72.47
2018-10-19T09:54:10.738Z,74.03
2018-10-19T09:56:38.402Z,71.17
2018-10-19T09:59:06.416Z,73.23
2018-10-19T10:01:34.206Z,70.70
2018-10-19T10:04:01.950Z,72.53
2018-10-19T10:06:29.776Z,72.27
2018-10-19T10:08:57.555Z,72.57
2018-10-19T10:11:25.155Z,71.37
2018-10-19T10:13:52.733Z,72.80
2018-10-19T10:16:20.496Z,69.00
2018-10-19T10:18:48.253Z,70.07
2018-10-19T10:21:15.874Z,72.00
2018-10-19T10:23:43.686Z,74.77
2018-10-19T10:26:11.701Z,74.03
2018-10-19T10:28:39.275Z,73.60
2018-10-19T10:31:06.979Z,70.07
2018-10-19T10:33:34.600Z,72.33
2018-10-19T10:36:02.569Z,71.37
2018-10-19T10:38:30.335Z,71.60
2018-10-19T10:40:57.888Z,72.10
2018-10-19T10:43:25.501Z,74.87
2018-10-19T10:45:53.048Z,68.87
2018-10-19T10:48:20.663Z,73.20
2018-10-19T10:50:48.290Z,71.70
2018-10-19T10:53:15.883Z,74.67
2018-10-19T10:55:43.482Z,72.00
2018-10-19T10:58:11.136Z,69.30
2018-10-19T11:00:38.721Z,72.90
2018-10-19T11:03:06.282Z,74.50
2018-10-19T11:05:33.858Z,75.27
2018-10-19T11:08:01.448Z,73.63
2018-10-19T11:10:29.016Z,73.30
2018-10-19T11:12:56.665Z,75.10
2018-10-19T11:15:24.292Z,73.53
2018-10-19T11:17:51.877Z,78.00
2018-10-19T11:20:19.693Z,70.20
2018-10-19T11:22:47.337Z,76.17
2018-10-19T11:25:15.052Z,77.23
2018-10-19T11:27:42.633Z,73.23
2018-10-19T11:30:10.251Z,76.07
2018-10-19T11:32:37.892Z,76.17
2018-10-19T11:35:05.884Z,71.43
2018-10-19T11:37:33.507Z,75.80
2018-10-19T11:40:33.608Z,74.43
2018-10-19T11:43:01.284Z,72.97
2018-10-19T11:45:30.257Z,75.37
2018-10-19T11:47:57.941Z,76.10
2018-10-19T11:50:25.507Z,71.33
2018-10-19T11:52:53.096Z,69.60
2018-10-19T11:55:20.754Z,73.07
2018-10-19T11:57:49.111Z,73.00
2018-10-19T12:00:16.900Z,72.97
2018-10-19T12:02:44.542Z,73.57
2018-10-19T12:05:12.074Z,76.17
2018-10-19T12:07:39.721Z,74.70
2018-10-19T12:10:08.487Z,73.00
2018-10-19T12:12:36.571Z,81.70
2018-10-19T12:15:05.128Z,71.70
2018-10-19T12:17:32.740Z,72.23
2018-10-19T12:20:00.303Z,74.87
2018-10-19T12:22:27.847Z,75.50
2018-10-19T12:24:55.482Z,73.80
2018-10-19T12:27:23.013Z,74.47
2018-10-19T12:29:50.590Z,73.40
2018-10-19T12:32:18.211Z,76.77
2018-10-19T12:34:45.763Z,74.23
2018-10-19T12:37:13.464Z,72.00
2018-10-19T12:39:41.276Z,72.57
2018-10-19T12:42:09.071Z,72.53
2018-10-19T12:44:37.028Z,74.57
2018-10-19T12:47:15.842Z,74.97
2018-10-19T12:49:44.069Z,68.80
2018-10-19T12:52:11.648Z,71.67
2018-10-19T12:54:39.387Z,73.40
2018-10-19T12:57:07.309Z,74.10
2018-10-19T12:59:34.785Z,68.80
2018-10-19T13:02:02.284Z,69.60
2018-10-19T13:04:29.842Z,74.07
2018-10-19T13:06:57.524Z,74.20
2018-10-19T13:09:25.068Z,71.13
2018-10-19T13:11:52.700Z,74.37
2018-10-19T13:14:20.355Z,71.70
2018-10-19T13:16:47.949Z,72.90
2018-10-19T13:19:15.777Z,72.50
2018-10-19T13:21:43.698Z,72.07
2018-10-19T13:24:11.566Z,70.37
2018-10-19T13:26:39.562Z,75.00
2018-10-19T13:29:07.365Z,70.83
2018-10-19T13:31:35.151Z,70.70
2018-10-19T13:34:02.806Z,70.07
2018-10-19T13:36:30.420Z,75.47
2018-10-19T13:38:58.089Z,66.30
2018-10-19T13:41:26.198Z,66.90
2018-10-19T13:43:54.378Z,64.90
2018-10-19T13:46:22.389Z,68.37
2018-10-19T13:48:50.264Z,70.37
2018-10-19T13:51:18.279Z,64.13
2018-10-19T13:53:46.233Z,66.37
2018-10-19T13:56:14.231Z,68.57
2018-10-19T13:58:42.160Z,66.40
2018-10-19T14:01:10.500Z,70.13
2018-10-19T14:03:38.116Z,66.00
2018-10-19T14:06:06.089Z,67.13
2018-10-19T14:08:33.710Z,68.60
2018-10-19T14:11:01.545Z,71.37
2018-10-19T14:13:29.146Z,66.17
2018-10-19T14:15:56.771Z,63.90
2018-10-19T14:18:24.440Z,66.10
2018-10-19T14:20:52.079Z,66.40
2018-10-19T14:23:19.766Z,71.33
2018-10-19T14:25:47.414Z,72.27
2018-10-19T14:28:15.096Z,74.30
2018-10-19T14:30:42.698Z,66.57
2018-10-19T14:33:10.468Z,69.37
2018-10-19T14:35:38.547Z,73.70
2018-10-19T14:38:06.500Z,68.80
2018-10-19T14:40:34.374Z,71.37
2018-10-19T14:43:02.188Z,69.40
2018-10-19T14:45:30.283Z,69.90
2018-10-19T14:47:58.211Z,68.23
2018-10-19T14:50:26.268Z,71.97
2018-10-19T14:52:54.060Z,68.47
2018-10-19T14:55:21.916Z,71.73
2018-10-19T14:57:49.701Z,69.33
2018-10-19T15:00:18.474Z,69.50
2018-10-19T15:02:46.250Z,69.10
2018-10-19T15:05:15.523Z,67.93
2018-10-19T15:07:43.249Z,69.00
2018-10-19T15:10:18.563Z,67.60
2018-10-19T15:12:46.544Z,63.57
2018-10-19T15:15:16.376Z,67.53
2018-10-19T15:17:44.693Z,67.50
2018-10-19T15:20:13.042Z,65.80
2018-10-19T15:22:40.648Z,67.33
2018-10-19T15:25:09.146Z,66.97
2018-10-19T15:27:37.380Z,64.57
2018-10-19T15:30:06.347Z,64.07
2018-10-19T15:32:34.069Z,64.70
2018-10-19T15:35:01.808Z,65.40
2018-10-19T15:37:29.496Z,66.00
2018-10-19T15:39:57.156Z,64.17
2018-10-19T15:42:24.835Z,62.67
2018-10-19T15:44:52.539Z,65.30
2018-10-19T15:47:24.368Z,66.17
2018-10-19T15:49:52.888Z,62.93
2018-10-19T15:52:20.731Z,65.07
2018-10-19T15:54:48.391Z,66.93
2018-10-19T15:57:16.133Z,63.60
2018-10-19T15:59:43.867Z,65.80
2018-10-19T16:02:11.510Z,66.70
2018-10-19T16:04:39.361Z,66.07
2018-10-19T16:07:07.201Z,64.77
2018-10-19T16:09:34.809Z,63.23
2018-10-19T16:12:02.530Z,61.70
2018-10-19T16:14:30.380Z,59.97
2018-10-19T16:16:58.133Z,61.90
2018-10-19T16:19:25.782Z,62.40
2018-10-19T16:21:53.547Z,62.73
2018-10-19T16:24:21.412Z,62.20
2018-10-19T16:26:49.143Z,59.07
2018-10-19T16:29:16.818Z,61.67
2018-10-19T16:31:44.476Z,63.03
2018-10-19T16:34:12.142Z,62.57
2018-10-19T16:36:39.730Z,62.57
2018-10-19T16:39:08.542Z,63.00
2018-10-19T16:41:36.211Z,65.30
2018-10-19T16:44:04.269Z,63.50
2018-10-19T16:46:32.742Z,65.23
2018-10-19T16:49:00.476Z,63.60
2018-10-19T16:51:28.391Z,63.43
2018-10-19T16:53:56.145Z,64.47
2018-10-19T16:56:23.996Z,65.10
2018-10-19T16:58:51.996Z,67.07
2018-10-19T17:01:19.705Z,61.27
2018-10-19T17:03:47.666Z,64.27
2018-10-19T17:06:15.611Z,61.10
2018-10-19T17:08:43.429Z,62.17
2018-10-19T17:11:11.249Z,61.97
2018-10-19T17:13:39.068Z,58.07
2018-10-19T17:16:06.865Z,63.33
2018-10-19T17:18:34.496Z,62.10
2018-10-19T17:21:02.733Z,64.07
2018-10-19T17:23:30.565Z,63.97
2018-10-19T17:25:58.313Z,62.33
2018-10-19T17:28:26.069Z,62.27
2018-10-19T17:30:53.837Z,63.60
2018-10-19T17:33:21.651Z,62.77
2018-10-19T17:35:49.393Z,62.40
2018-10-19T17:38:17.110Z,64.33
2018-10-19T17:40:44.841Z,62.53
2018-10-19T17:43:12.668Z,61.43
2018-10-19T17:45:40.452Z,61.67
2018-10-19T17:48:08.217Z,63.50
2018-10-19T17:50:36.255Z,60.60
2018-10-19T17:53:04.396Z,62.53
2018-10-19T17:55:32.406Z,62.33
2018-10-19T17:58:00.540Z,63.10
2018-10-19T18:00:28.650Z,64.00
2018-10-19T18:02:56.410Z,63.53
2018-10-19T18:05:24.091Z,62.03
2018-10-19T18:07:52.001Z,64.53
2018-10-19T18:10:20.364Z,65.77
2018-10-19T18:12:48.031Z,69.30
2018-10-19T18:15:15.953Z,66.93
2018-10-19T18:17:43.638Z,62.57
2018-10-19T18:20:11.448Z,60.10
2018-10-19T18:22:39.299Z,59.70
2018-10-19T18:25:07.460Z,60.30
2018-10-19T18:27:35.363Z,60.13
2018-10-19T18:30:03.367Z,63.80
2018-10-19T18:32:31.216Z,64.87
2018-10-19T18:34:59.214Z,63.70
2018-10-19T18:37:27.086Z,66.57
2018-10-19T18:39:54.911Z,64.40
2018-10-19T18:42:22.730Z,60.57
2018-10-19T18:44:50.488Z,64.40
2018-10-19T18:47:18.551Z,63.87
2018-10-19T18:49:46.297Z,62.30
2018-10-19T18:52:14.026Z,62.10
2018-10-19T18:54:41.920Z,63.00
2018-10-19T18:57:09.704Z,64.60
2018-10-19T18:59:37.417Z,66.73
2018-10-19T19:02:05.360Z,63.95
2018-10-19T19:04:33.055Z,60.73
2018-10-19T19:07:00.794Z,63.50
2018-10-19T19:09:28.482Z,59.90
2018-10-19T19:11:56.271Z,62.40
2018-10-19T19:14:24.235Z,63.00
2018-10-19T19:16:52.101Z,65.33
2018-10-19T19:19:20.082Z,68.23
2018-10-19T19:21:47.821Z,65.90
2018-10-19T19:24:21.548Z,66.30
2018-10-19T19:26:49.375Z,65.10
2018-10-19T19:29:17.223Z,64.77
2018-10-19T19:31:45.015Z,64.70
2018-10-19T19:34:18.613Z,69.32
2018-10-19T19:36:46.869Z,66.53
2018-10-19T19:39:14.772Z,57.65
2018-10-19T19:41:48.284Z,59.27
2018-10-19T19:44:16.155Z,57.08
2018-10-19T19:46:44.291Z,57.60
2018-10-19T19:49:17.805Z,61.18
2018-10-19T19:51:45.754Z,64.27
2018-10-19T19:54:13.590Z,71.07
2018-10-19T19:56:41.434Z,67.42
2018-10-19T19:59:16.079Z,68.83
2018-10-19T20:01:43.844Z,68.42
2018-10-19T20:04:11.642Z,74.47
2018-10-19T20:06:39.319Z,69.97
2018-10-19T20:09:07.399Z,69.30
2018-10-19T20:11:35.310Z,70.70
2018-10-19T20:14:03.111Z,68.10
2018-10-19T20:16:30.835Z,67.87
2018-10-19T20:18:58.532Z,66.90
2018-10-19T20:21:26.329Z,63.08
2018-10-19T20:23:54.400Z,64.47
2018-10-19T20:26:22.272Z,58.50
2018-10-19T20:28:49.961Z,61.85
2018-10-19T20:31:17.748Z,61.68
2018-10-19T20:33:45.696Z,61.73
2018-10-19T20:36:13.530Z,60.05
2018-10-19T20:38:41.573Z,60.17
2018-10-19T20:41:09.347Z,60.15
2018-10-19T20:43:37.350Z,57.40
2018-10-19T20:46:05.492Z,57.43
2018-10-19T20:48:33.293Z,59.03
2018-10-19T20:51:01.101Z,55.60
2018-10-19T20:53:28.813Z,60.10
2018-10-19T20:55:56.619Z,58.33
2018-10-19T20:58:24.280Z,60.88
2018-10-19T21:00:52.045Z,60.40
2018-10-19T21:03:19.856Z,59.90
2018-10-19T21:05:47.552Z,61.23
2018-10-19T21:08:15.256Z,62.25
2018-10-19T21:10:42.962Z,61.88
2018-10-19T21:13:10.635Z,59.53
2018-10-19T21:15:38.276Z,60.78
2018-10-19T21:18:05.896Z,60.73
2018-10-19T21:20:33.768Z,58.17
2018-10-19T21:23:01.558Z,58.58
2018-10-19T21:25:29.313Z,56.37
2018-10-19T21:27:56.949Z,55.55
2018-10-19T21:30:24.596Z,57.73
2018-10-19T21:32:52.240Z,53.35
2018-10-19T21:35:19.892Z,53.13
2018-10-19T21:37:47.482Z,55.10
2018-10-19T21:40:15.221Z,54.35
2018-10-19T21:42:42.898Z,54.75
2018-10-19T21:45:10.544Z,56.73
2018-10-19T21:47:38.161Z,53.45
2018-10-19T21:50:07.173Z,53.30
2018-10-19T21:52:34.766Z,54.08
2018-10-19T21:55:02.496Z,53.33
2018-10-19T21:57:30.176Z,51.55
2018-10-19T21:59:57.812Z,53.28
2018-10-19T22:02:25.471Z,53.08
2018-10-19T22:04:53.109Z,55.38
2018-10-19T22:07:20.887Z,52.05
2018-10-19T22:09:48.968Z,53.05
2018-10-19T22:12:16.661Z,52.65
2018-10-19T22:14:44.262Z,50.10
2018-10-19T22:17:11.909Z,45.63
2018-10-19T22:19:39.453Z,47.93
2018-10-19T22:22:07.127Z,49.53
2018-10-19T22:24:34.769Z,46.53
2018-10-19T22:27:02.408Z,47.43
2018-10-19T22:29:30.040Z,44.40
2018-10-19T22:31:57.651Z,40.70
2018-10-19T22:34:25.235Z,39.40
2018-10-19T22:36:52.890Z,40.52
2018-10-19T22:39:20.558Z,42.70
2018-10-19T22:41:48.202Z,43.55
2018-10-19T22:44:15.811Z,41.50
2018-10-19T22:46:43.405Z,39.83
2018-10-19T22:49:11.111Z,41.50
2018-10-19T22:51:38.643Z,41.88
2018-10-19T22:54:06.279Z,43.92
2018-10-19T22:56:33.979Z,41.63
2018-10-19T22:59:01.738Z,42.48
2018-10-19T23:01:29.286Z,41.20
2018-10-19T23:03:56.822Z,41.53
2018-10-19T23:06:24.633Z,40.05
2018-10-19T23:08:52.227Z,38.73
2018-10-19T23:11:20.921Z,41.50
2018-10-19T23:13:48.561Z,41.75
2018-10-19T23:16:17.478Z,42.00
2018-10-19T23:18:45.038Z,42.33
2018-10-19T23:21:12.613Z,42.83
2018-10-19T23:23:40.240Z,43.00
2018-10-19T23:26:09.229Z,43.60
2018-10-19T23:28:37.899Z,41.50
2018-10-19T23:31:06.591Z,38.83
2018-10-19T23:33:34.095Z,43.70
2018-10-19T23:36:02.768Z,47.53
2018-10-19T23:38:30.389Z,49.18
2018-10-19T23:40:57.962Z,45.17
2018-10-19T23:43:26.587Z,41.83
2018-10-19T23:45:54.124Z,44.60
2018-10-19T23:48:22.086Z,43.20
2018-10-19T23:50:50.466Z,42.20
2018-10-19T23:53:18.115Z,40.95
2018-10-19T23:55:45.622Z,42.00
2018-10-19T23:58:13.209Z,40.65
